createdAt,value
2022-07-30T00:00:41.939Z,49.63
2022-07-30T00:01:41.940Z,49.23
2022-07-30T00:02:41.912Z,50.24
2022-07-30T00:03:41.973Z,50.13
2022-07-30T00:04:41.912Z,50.04
2022-07-30T00:05:41.906Z,50.13
2022-07-30T00:06:41.907Z,50.24
2022-07-30T00:07:41.902Z,50.04
2022-07-30T00:08:41.899Z,50.13
2022-07-30T00:09:41.898Z,49.63
2022-07-30T00:10:41.896Z,50.13
2022-07-30T00:11:41.896Z,50.36
2022-07-30T00:12:41.888Z,50.16
2022-07-30T00:13:41.891Z,49.76
2022-07-30T00:14:41.890Z,49.93
2022-07-30T00:15:41.888Z,49.66
2022-07-30T00:16:42.010Z,50.56
2022-07-30T00:17:41.882Z,50.86
2022-07-30T00:18:41.881Z,50.86
2022-07-30T00:19:41.879Z,50.36
2022-07-30T00:20:44.339Z,50.66
2022-07-30T00:21:41.875Z,50.36
2022-07-30T00:22:41.874Z,50.26
2022-07-30T00:23:41.874Z,50.56
2022-07-30T00:24:41.878Z,50.56
2022-07-30T00:25:41.868Z,50.36
2022-07-30T00:26:41.864Z,50.56
2022-07-30T00:27:41.864Z,50.46
2022-07-30T00:28:41.862Z,50.06
2022-07-30T00:29:44.933Z,51.17
2022-07-30T00:30:41.918Z,51.09
2022-07-30T00:31:41.854Z,50.96
2022-07-30T00:32:41.853Z,50.96
2022-07-30T00:33:41.852Z,50.89
2022-07-30T00:34:41.853Z,50.89
2022-07-30T00:35:41.846Z,51.19
2022-07-30T00:36:41.840Z,51.19
2022-07-30T00:37:41.842Z,51.09
2022-07-30T00:38:41.840Z,51.39
2022-07-30T00:39:41.841Z,50.99
2022-07-30T00:40:41.834Z,51.09
2022-07-30T00:41:41.835Z,51.39
2022-07-30T00:42:41.831Z,51.39
2022-07-30T00:43:41.831Z,50.68
2022-07-30T00:44:41.828Z,51.69
2022-07-30T00:45:41.848Z,51.49
2022-07-30T00:46:41.823Z,51.99
2022-07-30T00:47:41.822Z,51.69
2022-07-30T00:48:41.851Z,51.19
2022-07-30T00:49:44.366Z,51.09
2022-07-30T00:50:41.814Z,51.59
2022-07-30T00:51:41.813Z,51.09
2022-07-30T00:52:41.810Z,51.59
2022-07-30T00:53:41.809Z,51.59
2022-07-30T00:54:41.805Z,52.09
2022-07-30T00:55:41.807Z,52.51
2022-07-30T00:56:41.801Z,51.72
2022-07-30T00:57:41.802Z,52.22
2022-07-30T00:58:41.800Z,52.59
2022-07-30T00:59:41.796Z,51.89
2022-07-30T01:00:41.843Z,52.22
2022-07-30T01:01:41.792Z,52.51
2022-07-30T01:02:41.788Z,52.42
2022-07-30T01:03:41.793Z,52.32
2022-07-30T01:04:41.782Z,52.12
2022-07-30T01:05:41.781Z,52.32
2022-07-30T01:06:41.779Z,52.32
2022-07-30T01:07:41.781Z,52.51
2022-07-30T01:08:41.774Z,52.01
2022-07-30T01:09:41.774Z,52.32
2022-07-30T01:10:41.772Z,53.14
2022-07-30T01:11:41.769Z,52.94
2022-07-30T01:12:41.763Z,52.84
2022-07-30T01:13:41.763Z,53.02
2022-07-30T01:14:41.760Z,52.64
2022-07-30T01:15:41.760Z,52.74
2022-07-30T01:16:41.867Z,52.92
2022-07-30T01:17:41.752Z,52.74
2022-07-30T01:18:41.753Z,53.45
2022-07-30T01:19:41.749Z,53.45
2022-07-30T01:20:41.746Z,53.65
2022-07-30T01:21:41.743Z,53.34
2022-07-30T01:22:41.744Z,53.45
2022-07-30T01:23:41.928Z,53.45
2022-07-30T01:24:41.735Z,53.34
2022-07-30T01:25:41.735Z,53.34
2022-07-30T01:26:41.731Z,53.34
2022-07-30T01:27:41.732Z,53.34
2022-07-30T01:28:41.727Z,53.25
2022-07-30T01:29:41.725Z,54.15
2022-07-30T01:30:41.721Z,53.75
2022-07-30T01:31:41.777Z,53.65
2022-07-30T01:32:41.712Z,53.57
2022-07-30T01:33:41.716Z,53.75
2022-07-30T01:34:41.716Z,53.65
2022-07-30T01:35:41.712Z,53.77
2022-07-30T01:36:41.708Z,53.85
2022-07-30T01:37:41.706Z,53.95
2022-07-30T01:38:41.704Z,53.85
2022-07-30T01:39:41.708Z,54.55
2022-07-30T01:40:41.703Z,54.78
2022-07-30T01:41:41.695Z,54.58
2022-07-30T01:42:41.692Z,54.48
2022-07-30T01:43:41.696Z,54.78
2022-07-30T01:44:41.687Z,55.08
2022-07-30T01:45:42.269Z,54.58
2022-07-30T01:46:41.683Z,54.98
2022-07-30T01:47:41.681Z,54.48
2022-07-30T01:48:41.705Z,54.58
2022-07-30T01:49:41.674Z,55.08
2022-07-30T01:50:41.673Z,55.48
2022-07-30T01:51:41.672Z,55.48
2022-07-30T01:52:41.667Z,54.88
2022-07-30T01:53:41.668Z,55.18
2022-07-30T01:54:41.664Z,54.98
2022-07-30T01:55:41.662Z,55.79
2022-07-30T01:56:41.656Z,55.81
2022-07-30T01:57:41.656Z,55.61
2022-07-30T01:58:41.651Z,55.00
2022-07-30T01:59:41.649Z,55.61
2022-07-30T02:00:41.690Z,55.61
2022-07-30T02:01:41.647Z,55.21
2022-07-30T02:02:41.641Z,55.71
2022-07-30T02:03:41.700Z,55.71
2022-07-30T02:04:41.636Z,56.21
2022-07-30T02:05:41.634Z,56.71
2022-07-30T02:06:41.633Z,56.14
2022-07-30T02:07:41.632Z,56.24
2022-07-30T02:08:41.639Z,56.44
2022-07-30T02:09:45.591Z,55.94
2022-07-30T02:10:41.621Z,56.24
2022-07-30T02:11:41.619Z,55.74
2022-07-30T02:12:41.618Z,55.74
2022-07-30T02:13:41.614Z,56.04
2022-07-30T02:14:41.611Z,56.14
2022-07-30T02:15:41.609Z,56.34
2022-07-30T02:16:41.686Z,56.95
2022-07-30T02:17:44.964Z,55.43
2022-07-30T02:18:41.602Z,55.74
2022-07-30T02:19:41.629Z,56.54
2022-07-30T02:20:41.596Z,57.24
2022-07-30T02:21:49.700Z,56.24
2022-07-30T02:22:41.589Z,56.44
2022-07-30T02:23:41.590Z,57.24
2022-07-30T02:24:41.584Z,56.64
2022-07-30T02:25:41.582Z,57.04
2022-07-30T02:26:41.580Z,56.95
2022-07-30T02:27:41.650Z,57.24
2022-07-30T02:28:41.578Z,56.97
2022-07-30T02:29:41.574Z,57.95
2022-07-30T02:30:41.568Z,56.84
2022-07-30T02:31:41.614Z,56.64
2022-07-30T02:32:41.564Z,57.24
2022-07-30T02:33:48.766Z,56.57
2022-07-30T02:34:41.557Z,57.04
2022-07-30T02:35:41.556Z,57.04
2022-07-30T02:36:41.551Z,57.68
2022-07-30T02:37:44.212Z,57.17
2022-07-30T02:38:41.547Z,57.17
2022-07-30T02:39:41.545Z,57.45
2022-07-30T02:40:41.542Z,57.68
2022-07-30T02:41:41.540Z,57.65
2022-07-30T02:42:41.536Z,57.57
2022-07-30T02:43:41.533Z,57.78
2022-07-30T02:44:41.532Z,57.98
2022-07-30T02:45:41.530Z,57.68
2022-07-30T02:46:41.552Z,57.65
2022-07-30T02:47:41.523Z,58.28
2022-07-30T02:48:41.573Z,57.75
2022-07-30T02:49:41.517Z,58.07
2022-07-30T02:50:41.515Z,57.48
2022-07-30T02:51:41.511Z,58.28
2022-07-30T02:52:41.511Z,58.48
2022-07-30T02:53:41.507Z,59.19
2022-07-30T02:54:41.503Z,58.21
2022-07-30T02:55:41.500Z,58.71
2022-07-30T02:56:41.498Z,58.71
2022-07-30T02:57:43.477Z,58.61
2022-07-30T02:58:41.493Z,58.61
2022-07-30T02:59:41.489Z,58.71
2022-07-30T03:00:41.598Z,59.22
2022-07-30T03:01:41.539Z,58.31
2022-07-30T03:02:43.655Z,57.50
2022-07-30T03:03:41.478Z,58.38
2022-07-30T03:04:41.475Z,58.11
2022-07-30T03:05:41.472Z,58.71
2022-07-30T03:06:41.471Z,58.91
2022-07-30T03:07:41.467Z,58.41
2022-07-30T03:08:41.461Z,58.51
2022-07-30T03:09:51.132Z,58.78
2022-07-30T03:10:41.453Z,58.91
2022-07-30T03:11:41.456Z,59.11
2022-07-30T03:12:41.452Z,59.01
2022-07-30T03:13:41.450Z,58.71
2022-07-30T03:14:41.445Z,59.62
2022-07-30T03:15:41.443Z,59.42
2022-07-30T03:16:41.483Z,58.61
2022-07-30T03:17:41.441Z,58.81
2022-07-30T03:18:41.433Z,59.42
2022-07-30T03:19:41.433Z,59.92
2022-07-30T03:20:41.429Z,59.72
2022-07-30T03:21:41.430Z,59.62
2022-07-30T03:22:41.420Z,59.52
2022-07-30T03:23:41.421Z,59.75
2022-07-30T03:24:41.417Z,59.72
2022-07-30T03:25:41.416Z,60.85
2022-07-30T03:26:41.411Z,60.35
2022-07-30T03:27:41.412Z,60.85
2022-07-30T03:28:41.405Z,60.96
2022-07-30T03:29:41.402Z,61.25
2022-07-30T03:30:41.401Z,61.05
2022-07-30T03:31:41.495Z,61.16
2022-07-30T03:32:41.393Z,61.25
2022-07-30T03:33:41.391Z,61.39
2022-07-30T03:34:41.391Z,61.25
2022-07-30T03:35:41.388Z,61.49
2022-07-30T03:36:41.382Z,61.99
2022-07-30T03:37:41.381Z,61.56
2022-07-30T03:38:41.380Z,61.25
2022-07-30T03:39:41.375Z,61.69
2022-07-30T03:40:41.374Z,61.49
2022-07-30T03:41:41.369Z,61.46
2022-07-30T03:42:41.367Z,61.89
2022-07-30T03:43:41.365Z,61.99
2022-07-30T03:44:41.362Z,62.70
2022-07-30T03:45:41.359Z,61.99
2022-07-30T03:46:41.446Z,62.09
2022-07-30T03:47:41.354Z,62.29
2022-07-30T03:48:41.423Z,62.49
2022-07-30T03:49:41.347Z,62.09
2022-07-30T03:50:41.343Z,62.70
2022-07-30T03:51:41.342Z,62.60
2022-07-30T03:52:41.440Z,62.70
2022-07-30T03:53:41.336Z,62.40
2022-07-30T03:54:41.332Z,62.09
2022-07-30T03:55:41.330Z,62.70
2022-07-30T03:56:41.327Z,63.70
2022-07-30T03:57:41.325Z,63.70
2022-07-30T03:58:41.327Z,63.50
2022-07-30T03:59:41.320Z,63.50
2022-07-30T04:00:41.318Z,64.61
2022-07-30T04:01:41.373Z,64.31
2022-07-30T04:02:41.313Z,64.11
2022-07-30T04:03:41.352Z,64.01
2022-07-30T04:04:41.305Z,64.21
2022-07-30T04:05:41.840Z,64.61
2022-07-30T04:06:41.301Z,63.90
2022-07-30T04:07:44.859Z,64.61
2022-07-30T04:08:41.295Z,62.90
2022-07-30T04:09:41.295Z,63.20
2022-07-30T04:10:41.290Z,63.30
2022-07-30T04:11:42.034Z,62.49
2022-07-30T04:12:41.283Z,62.80
2022-07-30T04:13:41.281Z,63.20
2022-07-30T04:14:41.280Z,62.70
2022-07-30T04:16:05.680Z,63.20
2022-07-30T04:16:42.304Z,62.49
2022-07-30T04:17:41.336Z,62.49
2022-07-30T04:18:41.336Z,62.66
2022-07-30T04:19:41.265Z,62.49
2022-07-30T04:20:41.262Z,63.30
2022-07-30T04:21:41.273Z,62.70
2022-07-30T04:22:41.256Z,62.57
2022-07-30T04:24:04.020Z,62.70
2022-07-30T04:24:41.251Z,62.49
2022-07-30T04:25:41.248Z,62.60
2022-07-30T04:26:41.246Z,62.70
2022-07-30T04:28:03.050Z,62.70
2022-07-30T04:28:41.240Z,62.66
2022-07-30T04:29:41.241Z,62.80
2022-07-30T04:30:41.236Z,62.77
2022-07-30T04:31:41.458Z,62.49
2022-07-30T04:32:41.228Z,62.80
2022-07-30T04:33:41.227Z,62.80
2022-07-30T04:34:41.225Z,62.70
2022-07-30T04:35:49.905Z,63.40
2022-07-30T04:36:41.218Z,63.40
2022-07-30T04:37:41.217Z,62.49
2022-07-30T04:38:41.210Z,63.00
2022-07-30T04:39:41.211Z,62.80
2022-07-30T04:40:41.206Z,62.66
2022-07-30T04:41:44.563Z,62.57
2022-07-30T04:42:41.201Z,62.60
2022-07-30T04:43:41.194Z,62.80
2022-07-30T04:44:41.199Z,62.70
2022-07-30T04:45:41.192Z,62.87
2022-07-30T04:46:41.309Z,62.87
2022-07-30T04:47:41.186Z,62.57
2022-07-30T04:48:41.238Z,62.57
2022-07-30T04:49:41.182Z,63.17
2022-07-30T04:50:41.178Z,63.07
2022-07-30T04:51:41.187Z,63.57
2022-07-30T04:52:41.172Z,63.67
2022-07-30T04:53:41.172Z,63.57
2022-07-30T04:54:41.166Z,63.17
2022-07-30T04:55:41.165Z,63.78
2022-07-30T04:56:41.159Z,64.38
2022-07-30T04:57:41.159Z,63.87
2022-07-30T04:58:41.157Z,62.97
2022-07-30T04:59:41.157Z,63.17
2022-07-30T05:00:41.629Z,63.67
2022-07-30T05:01:41.154Z,63.87
2022-07-30T05:02:41.146Z,64.07
2022-07-30T05:03:41.143Z,63.87
2022-07-30T05:04:41.140Z,64.28
2022-07-30T05:05:41.177Z,64.38
2022-07-30T05:06:41.133Z,63.47
2022-07-30T05:07:41.131Z,63.27
2022-07-30T05:08:41.128Z,63.57
2022-07-30T05:09:41.130Z,63.78
2022-07-30T05:10:41.123Z,64.28
2022-07-30T05:11:41.117Z,64.69
2022-07-30T05:12:41.115Z,64.38
2022-07-30T05:13:41.112Z,65.69
2022-07-30T05:14:44.350Z,64.41
2022-07-30T05:15:41.170Z,64.41
2022-07-30T05:16:41.105Z,64.51
2022-07-30T05:17:41.102Z,64.51
2022-07-30T05:18:41.100Z,64.18
2022-07-30T05:19:41.100Z,64.38
2022-07-30T05:20:41.093Z,63.98
2022-07-30T05:21:41.092Z,63.98
2022-07-30T05:22:42.844Z,62.84
2022-07-30T05:23:41.086Z,62.44
2022-07-30T05:24:41.082Z,62.54
2022-07-30T05:25:41.079Z,62.54
2022-07-30T05:26:41.073Z,62.61
2022-07-30T05:27:41.075Z,62.61
2022-07-30T05:28:41.071Z,62.24
2022-07-30T05:29:41.068Z,62.30
2022-07-30T05:30:42.043Z,62.51
2022-07-30T05:31:41.065Z,62.21
2022-07-30T05:32:41.063Z,62.10
2022-07-30T05:33:42.822Z,62.48
2022-07-30T05:34:41.056Z,62.18
2022-07-30T05:35:41.052Z,61.44
2022-07-30T05:36:41.051Z,61.14
2022-07-30T05:37:41.047Z,61.44
2022-07-30T05:38:41.048Z,61.14
2022-07-30T05:39:57.480Z,61.14
2022-07-30T05:40:41.040Z,61.44
2022-07-30T05:41:41.037Z,61.31
2022-07-30T05:42:41.035Z,60.31
2022-07-30T05:43:41.034Z,60.31
2022-07-30T05:44:41.029Z,59.80
2022-07-30T05:45:41.061Z,60.21
2022-07-30T05:46:41.076Z,60.58
2022-07-30T05:47:41.023Z,59.98
2022-07-30T05:48:41.049Z,59.65
2022-07-30T05:49:41.018Z,60.05
2022-07-30T05:50:41.015Z,58.62
2022-07-30T05:51:41.014Z,58.42
2022-07-30T05:52:41.010Z,57.91
2022-07-30T05:53:41.010Z,58.29
2022-07-30T05:54:41.009Z,57.08
2022-07-30T05:55:41.014Z,57.46
2022-07-30T05:56:41.003Z,57.46
2022-07-30T05:57:41.002Z,56.23
2022-07-30T05:58:40.998Z,56.33
2022-07-30T05:59:40.997Z,56.52
2022-07-30T06:00:40.995Z,55.52
2022-07-30T06:01:41.025Z,55.20
2022-07-30T06:02:40.991Z,56.40
2022-07-30T06:03:40.989Z,55.50
2022-07-30T06:04:40.986Z,55.60
2022-07-30T06:05:40.984Z,54.60
2022-07-30T06:06:40.982Z,55.13
2022-07-30T06:07:40.982Z,55.82
2022-07-30T06:08:40.978Z,57.03
2022-07-30T06:09:40.977Z,56.40
2022-07-30T06:10:40.978Z,56.40
2022-07-30T06:11:40.975Z,55.75
2022-07-30T06:12:40.970Z,57.28
2022-07-30T06:13:40.969Z,57.46
2022-07-30T06:14:40.973Z,56.58
2022-07-30T06:15:41.011Z,58.31
2022-07-30T06:16:40.965Z,57.61
2022-07-30T06:17:41.394Z,57.48
2022-07-30T06:18:40.964Z,58.64
2022-07-30T06:19:40.961Z,58.57
2022-07-30T06:20:40.957Z,58.84
2022-07-30T06:22:06.395Z,58.54
2022-07-30T06:22:40.956Z,58.87
2022-07-30T06:23:40.954Z,58.87
2022-07-30T06:24:40.950Z,58.94
2022-07-30T06:25:40.950Z,58.72
2022-07-30T06:26:40.950Z,58.99
2022-07-30T06:27:40.947Z,58.18
2022-07-30T06:28:40.944Z,58.92
2022-07-30T06:29:40.943Z,58.42
2022-07-30T06:30:40.987Z,58.44
2022-07-30T06:31:40.948Z,59.14
2022-07-30T06:32:40.938Z,59.12
2022-07-30T06:33:40.938Z,59.72
2022-07-30T06:34:40.936Z,59.29
2022-07-30T06:35:40.934Z,57.76
2022-07-30T06:36:40.932Z,57.53
2022-07-30T06:38:06.224Z,56.60
2022-07-30T06:38:40.931Z,56.60
2022-07-30T06:39:56.251Z,57.13
2022-07-30T06:40:40.926Z,56.45
2022-07-30T06:41:40.927Z,57.51
2022-07-30T06:42:40.924Z,57.59
2022-07-30T06:43:40.925Z,58.09
2022-07-30T06:44:40.922Z,56.85
2022-07-30T06:45:40.920Z,56.23
2022-07-30T06:46:40.989Z,56.45
2022-07-30T06:47:40.919Z,57.46
2022-07-30T06:48:40.972Z,58.03
2022-07-30T06:49:40.915Z,56.80
2022-07-30T06:50:40.914Z,56.90
2022-07-30T06:51:40.912Z,56.20
2022-07-30T06:52:40.912Z,56.67
2022-07-30T06:53:42.387Z,55.00
2022-07-30T06:54:40.912Z,56.96
2022-07-30T06:55:40.909Z,58.29
2022-07-30T06:56:40.914Z,58.69
2022-07-30T06:57:42.662Z,58.18
2022-07-30T06:58:40.905Z,58.36
2022-07-30T06:59:56.089Z,57.33
2022-07-30T07:00:40.903Z,57.13
2022-07-30T07:01:40.931Z,58.13
2022-07-30T07:02:40.925Z,57.10
2022-07-30T07:03:41.005Z,56.10
2022-07-30T07:04:40.922Z,57.10
2022-07-30T07:05:40.897Z,56.87
2022-07-30T07:06:40.901Z,56.48
2022-07-30T07:07:43.257Z,56.05
2022-07-30T07:08:40.893Z,55.74
2022-07-30T07:09:44.650Z,55.55
2022-07-30T07:10:40.894Z,56.07
2022-07-30T07:11:40.894Z,55.05
2022-07-30T07:12:40.891Z,54.42
2022-07-30T07:13:40.893Z,54.42
2022-07-30T07:14:40.893Z,54.12
2022-07-30T07:15:40.890Z,54.32
2022-07-30T07:16:40.976Z,54.99
2022-07-30T07:17:40.883Z,55.07
2022-07-30T07:18:40.887Z,53.97
2022-07-30T07:20:01.164Z,52.04
2022-07-30T07:20:40.883Z,52.47
2022-07-30T07:21:40.881Z,52.87
2022-07-30T07:22:40.882Z,53.19
2022-07-30T07:23:42.301Z,54.55
2022-07-30T07:24:40.884Z,54.87
2022-07-30T07:25:40.883Z,55.35
2022-07-30T07:26:40.882Z,54.77
2022-07-30T07:27:40.880Z,55.05
2022-07-30T07:28:40.887Z,55.35
2022-07-30T07:29:40.874Z,55.47
2022-07-30T07:30:40.902Z,55.35
2022-07-30T07:32:05.477Z,54.02
2022-07-30T07:32:40.876Z,54.29
2022-07-30T07:33:40.877Z,53.97
2022-07-30T07:34:40.878Z,54.06
2022-07-30T07:35:48.835Z,52.57
2022-07-30T07:36:40.878Z,53.07
2022-07-30T07:37:40.875Z,52.84
2022-07-30T07:38:40.877Z,52.62
2022-07-30T07:39:42.438Z,51.50
2022-07-30T07:40:40.874Z,50.77
2022-07-30T07:41:48.827Z,50.87
2022-07-30T07:42:40.875Z,50.60
2022-07-30T07:43:40.878Z,50.12
2022-07-30T07:44:40.876Z,52.42
2022-07-30T07:45:41.189Z,52.22
2022-07-30T07:46:41.655Z,50.95
2022-07-30T07:47:40.874Z,53.49
2022-07-30T07:48:40.940Z,53.39
2022-07-30T07:49:40.882Z,53.69
2022-07-30T07:50:40.884Z,53.52
2022-07-30T07:51:47.995Z,55.47
2022-07-30T07:52:40.876Z,55.47
2022-07-30T07:53:40.874Z,56.07
2022-07-30T07:54:40.874Z,57.07
2022-07-30T07:55:40.869Z,56.24
2022-07-30T07:56:40.878Z,57.15
2022-07-30T07:57:40.875Z,56.45
2022-07-30T07:58:40.873Z,54.94
2022-07-30T07:59:41.068Z,55.44
2022-07-30T08:00:40.872Z,56.37
2022-07-30T08:01:40.925Z,57.50
2022-07-30T08:02:40.927Z,56.80
2022-07-30T08:03:40.872Z,57.30
2022-07-30T08:04:40.870Z,57.87
2022-07-30T08:05:59.051Z,57.28
2022-07-30T08:06:40.876Z,57.28
2022-07-30T08:07:40.870Z,56.27
2022-07-30T08:08:40.869Z,56.77
2022-07-30T08:09:44.725Z,57.17
2022-07-30T08:10:40.868Z,56.95
2022-07-30T08:11:40.866Z,56.67
2022-07-30T08:12:40.873Z,55.65
2022-07-30T08:13:48.101Z,55.94
2022-07-30T08:14:40.871Z,56.24
2022-07-30T08:15:40.867Z,56.74
2022-07-30T08:16:40.909Z,56.42
2022-07-30T08:17:40.865Z,55.52
2022-07-30T08:18:40.866Z,55.49
2022-07-30T08:19:40.864Z,55.40
2022-07-30T08:20:40.864Z,55.40
2022-07-30T08:21:40.867Z,55.07
2022-07-30T08:22:40.862Z,54.34
2022-07-30T08:23:42.601Z,53.34
2022-07-30T08:24:40.861Z,53.42
2022-07-30T08:25:40.863Z,54.32
2022-07-30T08:26:40.860Z,53.79
2022-07-30T08:27:40.859Z,52.69
2022-07-30T08:28:40.864Z,52.79
2022-07-30T08:29:40.859Z,52.57
2022-07-30T08:30:40.865Z,52.57
2022-07-30T08:31:40.858Z,53.14
2022-07-30T08:32:40.855Z,52.37
2022-07-30T08:33:40.856Z,52.67
2022-07-30T08:34:40.855Z,51.75
2022-07-30T08:35:41.713Z,51.95
2022-07-30T08:36:40.854Z,51.15
2022-07-30T08:37:40.856Z,51.95
2022-07-30T08:38:40.861Z,51.37
2022-07-30T08:39:40.855Z,51.17
2022-07-30T08:40:40.893Z,51.15
2022-07-30T08:41:40.855Z,51.65
2022-07-30T08:42:40.855Z,52.37
2022-07-30T08:43:40.855Z,51.65
2022-07-30T08:44:40.855Z,52.57
2022-07-30T08:45:40.883Z,52.37
2022-07-30T08:46:40.852Z,52.76
2022-07-30T08:47:40.855Z,52.57
2022-07-30T08:48:40.897Z,52.76
2022-07-30T08:49:40.852Z,52.27
2022-07-30T08:50:40.854Z,53.06
2022-07-30T08:51:40.856Z,52.47
2022-07-30T08:52:40.852Z,53.54
2022-07-30T08:53:40.853Z,53.04
2022-07-30T08:54:40.853Z,52.42
2022-07-30T08:55:40.854Z,51.92
2022-07-30T08:56:40.853Z,52.22
2022-07-30T08:57:40.854Z,51.03
2022-07-30T08:58:40.855Z,52.55
2022-07-30T09:00:00.227Z,52.74
2022-07-30T09:00:40.853Z,52.25
2022-07-30T09:01:40.853Z,53.14
2022-07-30T09:02:40.854Z,52.37
2022-07-30T09:03:44.469Z,53.56
2022-07-30T09:04:40.854Z,52.97
2022-07-30T09:05:40.854Z,52.55
2022-07-30T09:06:40.868Z,52.22
2022-07-30T09:07:40.854Z,51.95
2022-07-30T09:08:40.855Z,52.94
2022-07-30T09:09:40.858Z,52.25
2022-07-30T09:10:40.856Z,51.95
2022-07-30T09:11:40.859Z,52.92
2022-07-30T09:12:40.854Z,52.62
2022-07-30T09:13:40.858Z,52.59
2022-07-30T09:14:40.858Z,52.59
2022-07-30T09:15:40.863Z,51.17
2022-07-30T09:16:40.858Z,51.57
2022-07-30T09:17:40.857Z,50.87
2022-07-30T09:18:40.859Z,51.05
2022-07-30T09:19:40.858Z,50.38
2022-07-30T09:20:40.858Z,50.55
2022-07-30T09:21:40.860Z,50.57
2022-07-30T09:22:40.859Z,49.98
2022-07-30T09:23:40.861Z,50.52
2022-07-30T09:24:40.861Z,53.06
2022-07-30T09:25:40.862Z,53.49
2022-07-30T09:26:40.859Z,52.79
2022-07-30T09:27:40.860Z,53.61
2022-07-30T09:28:40.861Z,54.71
2022-07-30T09:29:40.863Z,54.39
2022-07-30T09:30:40.865Z,53.99
2022-07-30T09:31:43.550Z,53.66
2022-07-30T09:32:40.863Z,53.94
2022-07-30T09:33:40.863Z,53.84
2022-07-30T09:34:40.864Z,52.64
2022-07-30T09:35:40.865Z,53.36
2022-07-30T09:36:40.866Z,53.06
2022-07-30T09:37:40.866Z,53.29
2022-07-30T09:38:40.866Z,53.36
2022-07-30T09:39:40.873Z,54.24
2022-07-30T09:40:42.956Z,52.72
2022-07-30T09:41:40.870Z,51.65
2022-07-30T09:42:40.869Z,53.69
2022-07-30T09:43:40.868Z,54.49
2022-07-30T09:44:40.869Z,54.57
2022-07-30T09:45:40.871Z,53.49
2022-07-30T09:46:40.885Z,52.27
2022-07-30T09:47:40.871Z,52.94
2022-07-30T09:48:40.913Z,52.12
2022-07-30T09:49:40.873Z,52.92
2022-07-30T09:50:40.873Z,52.51
2022-07-30T09:51:55.982Z,51.70
2022-07-30T09:52:43.841Z,52.29
2022-07-30T09:53:40.874Z,51.89
2022-07-30T09:54:40.874Z,52.49
2022-07-30T09:55:42.105Z,50.90
2022-07-30T09:56:40.872Z,51.50
2022-07-30T09:57:40.875Z,51.27
2022-07-30T09:58:45.481Z,52.07
2022-07-30T09:59:40.874Z,50.57
2022-07-30T10:00:42.254Z,50.65
2022-07-30T10:01:49.445Z,50.87
2022-07-30T10:02:40.878Z,51.07
2022-07-30T10:03:42.395Z,51.87
2022-07-30T10:04:40.923Z,51.57
2022-07-30T10:05:40.879Z,50.75
2022-07-30T10:06:42.010Z,50.57
2022-07-30T10:07:42.787Z,50.60
2022-07-30T10:08:40.878Z,51.37
2022-07-30T10:09:40.878Z,51.17
2022-07-30T10:10:47.109Z,50.98
2022-07-30T10:11:40.881Z,51.05
2022-07-30T10:12:40.881Z,51.62
2022-07-30T10:13:45.370Z,50.73
2022-07-30T10:14:42.717Z,50.03
2022-07-30T10:15:40.884Z,49.91
2022-07-30T10:16:40.883Z,49.51
2022-07-30T10:17:40.886Z,49.51
2022-07-30T10:18:40.886Z,50.50
2022-07-30T10:19:42.098Z,49.51
2022-07-30T10:20:41.011Z,49.68
2022-07-30T10:21:40.887Z,48.79
2022-07-30T10:22:40.888Z,49.38
2022-07-30T10:23:44.346Z,48.99
2022-07-30T10:24:40.889Z,49.26
2022-07-30T10:25:49.743Z,49.07
2022-07-30T10:26:40.890Z,48.19
2022-07-30T10:27:40.893Z,48.69
2022-07-30T10:28:40.892Z,49.11
2022-07-30T10:29:42.545Z,49.91
2022-07-30T10:30:40.895Z,49.33
2022-07-30T10:31:49.490Z,49.33
2022-07-30T10:32:42.304Z,49.51
2022-07-30T10:33:40.895Z,49.13
2022-07-30T10:34:42.421Z,49.63
2022-07-30T10:35:40.899Z,49.85
2022-07-30T10:36:40.900Z,50.08
2022-07-30T10:37:40.923Z,50.57
2022-07-30T10:38:41.929Z,50.48
2022-07-30T10:39:40.900Z,50.55
2022-07-30T10:40:40.901Z,50.65
2022-07-30T10:41:44.486Z,49.95
2022-07-30T10:42:40.903Z,50.25
2022-07-30T10:43:40.906Z,50.05
2022-07-30T10:44:40.905Z,49.85
2022-07-30T10:45:45.532Z,50.23
2022-07-30T10:46:40.907Z,50.03
2022-07-30T10:47:44.900Z,48.22
2022-07-30T10:48:40.908Z,49.80
2022-07-30T10:49:43.094Z,49.21
2022-07-30T10:50:40.912Z,49.68
2022-07-30T10:51:40.912Z,49.08
2022-07-30T10:52:40.914Z,49.33
2022-07-30T10:53:41.658Z,48.96
2022-07-30T10:54:40.916Z,50.52
2022-07-30T10:55:40.914Z,50.23
2022-07-30T10:56:40.919Z,50.60
2022-07-30T10:57:41.509Z,49.21
2022-07-30T10:58:40.921Z,49.68
2022-07-30T10:59:40.921Z,49.16
2022-07-30T11:00:40.922Z,48.47
2022-07-30T11:01:40.921Z,48.44
2022-07-30T11:02:40.924Z,49.02
2022-07-30T11:03:45.058Z,48.52
2022-07-30T11:04:40.924Z,46.93
2022-07-30T11:05:45.165Z,48.14
2022-07-30T11:06:40.928Z,48.74
2022-07-30T11:07:40.932Z,47.85
2022-07-30T11:08:42.901Z,48.62
2022-07-30T11:09:41.841Z,47.92
2022-07-30T11:10:40.934Z,46.83
2022-07-30T11:12:05.602Z,46.91
2022-07-30T11:12:40.935Z,47.21
2022-07-30T11:13:40.936Z,45.70
2022-07-30T11:14:40.939Z,46.34
2022-07-30T11:15:40.943Z,47.13
2022-07-30T11:16:42.087Z,47.55
2022-07-30T11:17:40.942Z,48.07
2022-07-30T11:18:40.944Z,49.68
2022-07-30T11:19:55.753Z,48.59
2022-07-30T11:20:41.063Z,47.17
2022-07-30T11:21:40.946Z,48.07
2022-07-30T11:22:40.949Z,47.23
2022-07-30T11:23:40.953Z,47.11
2022-07-30T11:24:40.952Z,46.51
2022-07-30T11:25:51.643Z,45.60
2022-07-30T11:26:41.299Z,45.08
2022-07-30T11:27:41.333Z,45.38
2022-07-30T11:28:40.970Z,43.87
2022-07-30T11:29:51.333Z,44.86
2022-07-30T11:30:40.963Z,45.28
2022-07-30T11:31:57.958Z,44.98
2022-07-30T11:32:40.963Z,44.98
2022-07-30T11:33:40.965Z,45.08
2022-07-30T11:34:40.976Z,44.37
2022-07-30T11:35:40.971Z,44.49
2022-07-30T11:36:40.971Z,44.56
2022-07-30T11:37:40.974Z,43.57
2022-07-30T11:38:40.974Z,44.19
2022-07-30T11:39:40.976Z,43.99
2022-07-30T11:40:40.979Z,43.08
2022-07-30T11:41:40.977Z,43.20
2022-07-30T11:42:40.980Z,41.91
2022-07-30T11:43:40.979Z,41.41
2022-07-30T11:44:40.982Z,42.03
2022-07-30T11:45:40.986Z,41.63
2022-07-30T11:46:40.988Z,41.58
2022-07-30T11:47:40.988Z,42.69
2022-07-30T11:48:41.063Z,44.25
2022-07-30T11:49:40.990Z,41.97
2022-07-30T11:50:40.994Z,40.38
2022-07-30T11:51:40.994Z,41.71
2022-07-30T11:52:40.993Z,41.39
2022-07-30T11:53:40.996Z,41.60
2022-07-30T11:54:40.996Z,41.58
2022-07-30T11:55:40.998Z,42.27
2022-07-30T11:56:41.000Z,41.58
2022-07-30T11:57:41.006Z,41.36
2022-07-30T11:58:41.003Z,41.93
2022-07-30T11:59:41.005Z,39.75
2022-07-30T12:00:41.006Z,40.36
2022-07-30T12:01:41.010Z,39.97
2022-07-30T12:02:41.055Z,40.78
2022-07-30T12:03:41.013Z,39.07
2022-07-30T12:04:41.012Z,38.79
2022-07-30T12:05:41.022Z,39.59
2022-07-30T12:06:41.016Z,38.50
2022-07-30T12:07:41.015Z,38.70
2022-07-30T12:08:41.017Z,40.68
2022-07-30T12:09:41.019Z,40.34
2022-07-30T12:10:41.019Z,40.55
2022-07-30T12:11:41.023Z,38.84
2022-07-30T12:12:41.020Z,39.37
2022-07-30T12:13:44.292Z,39.17
2022-07-30T12:14:41.029Z,38.96
2022-07-30T12:15:41.028Z,39.28
2022-07-30T12:16:41.029Z,39.83
2022-07-30T12:17:41.030Z,40.52
2022-07-30T12:18:41.031Z,40.64
2022-07-30T12:19:47.961Z,41.16
2022-07-30T12:20:41.037Z,39.36
2022-07-30T12:21:41.034Z,39.95
2022-07-30T12:22:41.038Z,39.97
2022-07-30T12:23:41.040Z,39.87
2022-07-30T12:24:41.041Z,40.38
2022-07-30T12:25:49.229Z,39.87
2022-07-30T12:26:41.045Z,40.44
2022-07-30T12:27:41.047Z,38.96
2022-07-30T12:28:41.044Z,40.25
2022-07-30T12:29:41.048Z,39.63
2022-07-30T12:30:41.051Z,38.82
2022-07-30T12:31:41.054Z,38.44
2022-07-30T12:32:41.050Z,38.94
2022-07-30T12:33:42.330Z,39.02
2022-07-30T12:34:41.057Z,38.72
2022-07-30T12:35:41.058Z,38.11
2022-07-30T12:36:41.059Z,39.31
2022-07-30T12:37:41.060Z,38.23
2022-07-30T12:38:41.066Z,38.03
2022-07-30T12:39:41.065Z,38.34
2022-07-30T12:40:41.065Z,37.93
2022-07-30T12:41:41.067Z,38.05
2022-07-30T12:42:41.070Z,37.87
2022-07-30T12:43:41.070Z,37.27
2022-07-30T12:44:41.074Z,39.14
2022-07-30T12:45:51.837Z,37.95
2022-07-30T12:46:41.081Z,37.05
2022-07-30T12:47:41.088Z,39.71
2022-07-30T12:48:41.147Z,37.95
2022-07-30T12:49:48.817Z,38.54
2022-07-30T12:50:41.089Z,40.23
2022-07-30T12:51:41.088Z,39.23
2022-07-30T12:52:41.087Z,38.62